Time;durP1;ratioP1;P1;durP2;ratioP2;P2;SDS_P1;SDS_P2;PMS_P1;PMS_P2;Temp;Humidity;BMP_temperature;BMP_pressure;BME280_temperature;BME280_humidity;BME280_pressure;Samples;Min_cycle;Max_cycle;Signal;HPM_P1;HPM_P2
2021/04/29 00:00:44;;;;;;;37.88;21.98;;;9.80;99.90;;;;;;5072293;28;20055;-79
2021/04/29 00:03:09;;;;;;;36.22;23.85;;;9.80;99.90;;;;;;5072085;28;20051;-80
2021/04/29 00:05:36;;;;;;;33.85;21.88;;;9.80;99.90;;;;;;5071590;28;20373;-79
2021/04/29 00:08:02;;;;;;;35.25;22.15;;;9.80;99.90;;;;;;5071076;28;20039;-80
2021/04/29 00:10:31;;;;;;;33.15;22.42;;;9.80;99.90;;;;;;5071536;28;20033;-79
2021/04/29 00:12:57;;;;;;;36.30;22.83;;;9.70;99.90;;;;;;5071740;28;20036;-80
2021/04/29 00:15:24;;;;;;;36.58;22.27;;;9.80;99.90;;;;;;5071470;28;20021;-83
2021/04/29 00:17:50;;;;;;;35.97;23.55;;;9.80;99.90;;;;;;5071064;28;20027;-79
2021/04/29 00:20:18;;;;;;;36.58;23.58;;;9.70;99.90;;;;;;5072798;28;20016;-80
2021/04/29 00:22:44;;;;;;;35.13;23.33;;;9.70;99.90;;;;;;5072363;28;20863;-79
2021/04/29 00:25:11;;;;;;;37.40;24.00;;;9.60;99.90;;;;;;5071444;28;20024;-80
2021/04/29 00:27:37;;;;;;;34.65;22.80;;;9.60;99.90;;;;;;5072136;28;20049;-78
2021/04/29 00:30:05;;;;;;;40.33;23.35;;;9.60;99.90;;;;;;5072185;28;20016;-81
2021/04/29 00:32:31;;;;;;;35.05;23.10;;;9.60;99.90;;;;;;5072571;28;20032;-83
2021/04/29 00:34:56;;;;;;;37.25;23.98;;;9.60;99.90;;;;;;5072310;28;20017;-81
2021/04/29 00:37:22;;;;;;;36.28;22.88;;;9.60;99.90;;;;;;5073355;28;20412;-82
2021/04/29 00:39:48;;;;;;;39.50;24.33;;;9.60;99.90;;;;;;5072209;28;20490;-81
2021/04/29 00:42:14;;;;;;;35.30;23.42;;;9.60;99.90;;;;;;5072174;28;20120;-79
2021/04/29 00:44:40;;;;;;;35.88;23.40;;;9.60;99.90;;;;;;5072074;28;20024;-80
2021/04/29 00:47:07;;;;;;;42.65;23.88;;;9.60;99.90;;;;;;5071859;28;20480;-80
2021/04/29 00:49:34;;;;;;;36.67;23.13;;;9.60;99.90;;;;;;5073356;28;20024;-81
2021/04/29 00:52:00;;;;;;;36.72;23.63;;;9.70;99.90;;;;;;5071648;28;20036;-79
2021/04/29 00:54:25;;;;;;;37.88;23.58;;;9.70;99.90;;;;;;5071805;28;20029;-81
2021/04/29 00:56:51;;;;;;;33.28;22.65;;;9.70;99.90;;;;;;5071180;28;20028;-81
2021/04/29 00:59:17;;;;;;;36.28;23.20;;;9.70;99.90;;;;;;5071247;28;20115;-82
2021/04/29 01:01:46;;;;;;;35.28;22.75;;;9.60;99.90;;;;;;5072080;28;20048;-83
2021/04/29 01:04:21;;;;;;;36.05;23.65;;;9.60;99.90;;;;;;5072572;28;20029;-82
2021/04/29 01:06:52;;;;;;;36.30;22.98;;;9.60;99.90;;;;;;5071187;28;20036;-80
2021/04/29 01:09:26;;;;;;;38.33;23.05;;;9.60;99.90;;;;;;5072169;28;20040;-83
2021/04/29 01:12:02;;;;;;;35.17;23.33;;;9.60;99.90;;;;;;5071145;28;20467;-83
2021/04/29 01:14:30;;;;;;;33.72;22.58;;;9.70;99.90;;;;;;5074151;28;20031;-81
2021/04/29 01:16:57;;;;;;;34.70;23.13;;;9.70;99.90;;;;;;5074985;28;20032;-82
2021/04/29 01:19:51;;;;;;;37.17;23.90;;;9.60;99.90;;;;;;5076125;28;20024;-82
2021/04/29 01:22:17;;;;;;;36.83;24.65;;;9.50;99.90;;;;;;5073101;28;20029;-82
2021/04/29 01:25:07;;;;;;;35.67;23.85;;;9.50;99.90;;;;;;5074655;28;20029;-83
2021/04/29 01:27:34;;;;;;;35.45;23.58;;;9.50;99.90;;;;;;5074991;28;20540;-81
2021/04/29 01:30:12;;;;;;;38.08;23.77;;;9.50;99.90;;;;;;5075065;28;20082;-80
2021/04/29 01:32:39;;;;;;;39.10;24.02;;;9.40;99.90;;;;;;5074596;28;20052;-83
2021/04/29 01:35:06;;;;;;;37.88;22.90;;;9.30;99.90;;;;;;5074531;28;20091;-79
2021/04/29 01:37:33;;;;;;;39.28;24.45;;;9.30;99.90;;;;;;5075970;28;20070;-81
2021/04/29 01:40:00;;;;;;;38.95;24.50;;;9.30;99.90;;;;;;5075679;28;20024;-80
2021/04/29 01:42:27;;;;;;;40.78;24.92;;;9.20;99.90;;;;;;5074528;28;20020;-80
2021/04/29 01:44:53;;;;;;;39.95;24.77;;;9.20;99.90;;;;;;5074458;28;20031;-79
2021/04/29 01:47:19;;;;;;;40.67;25.90;;;9.10;99.90;;;;;;5075406;28;20036;-80
2021/04/29 01:49:46;;;;;;;38.00;23.27;;;9.00;99.90;;;;;;5075650;28;20029;-80
2021/04/29 01:52:12;;;;;;;38.15;24.02;;;9.00;99.90;;;;;;5074404;28;20029;-82
2021/04/29 01:54:38;;;;;;;40.45;25.30;;;8.90;99.90;;;;;;5074243;28;20029;-80
2021/04/29 01:57:05;;;;;;;43.28;25.92;;;8.90;99.90;;;;;;5074236;28;20027;-79
2021/04/29 01:59:30;;;;;;;37.80;24.92;;;8.80;99.90;;;;;;5074012;28;20100;-79
2021/04/29 02:01:56;;;;;;;39.83;25.25;;;8.70;99.90;;;;;;5074059;28;20044;-79
2021/04/29 02:04:22;;;;;;;41.80;26.88;;;8.70;99.90;;;;;;5075301;28;20024;-83
2021/04/29 02:06:47;;;;;;;45.72;25.88;;;8.70;99.90;;;;;;5074153;28;20450;-80
2021/04/29 02:09:14;;;;;;;37.42;24.63;;;8.60;99.90;;;;;;5073836;28;20042;-80
2021/04/29 02:11:56;;;;;;;44.67;25.90;;;8.50;99.90;;;;;;5075081;28;20017;-80
2021/04/29 02:14:30;;;;;;;41.28;25.73;;;8.50;99.90;;;;;;5073702;28;20025;-80
2021/04/29 02:17:00;;;;;;;42.15;25.35;;;8.40;99.90;;;;;;5075245;28;20412;-79
2021/04/29 02:19:27;;;;;;;45.35;27.27;;;8.40;99.90;;;;;;5074914;28;20086;-80
2021/04/29 02:21:53;;;;;;;42.42;26.95;;;8.40;99.90;;;;;;5074716;28;20095;-80
2021/04/29 02:24:20;;;;;;;42.15;27.42;;;8.30;99.90;;;;;;5073274;28;20034;-83
2021/04/29 02:26:49;;;;;;;42.00;26.80;;;8.40;99.90;;;;;;5074310;28;20052;-80
2021/04/29 02:29:15;;;;;;;41.80;27.67;;;8.30;99.90;;;;;;5073008;28;20043;-82
2021/04/29 02:31:42;;;;;;;42.42;28.77;;;8.30;99.90;;;;;;5073417;28;20025;-80
2021/04/29 02:34:08;;;;;;;46.90;27.48;;;8.20;99.90;;;;;;5074760;28;20083;-82
2021/04/29 02:36:35;;;;;;;45.10;27.42;;;8.20;99.90;;;;;;5073443;28;20020;-83
2021/04/29 02:39:03;;;;;;;48.33;28.38;;;8.20;99.90;;;;;;5073280;28;20029;-80
2021/04/29 02:41:29;;;;;;;45.50;27.92;;;8.10;99.90;;;;;;5072935;28;20056;-80
2021/04/29 02:43:56;;;;;;;54.33;27.83;;;8.10;99.90;;;;;;5074083;28;20055;-80
2021/04/29 02:46:23;;;;;;;44.05;27.30;;;8.10;99.90;;;;;;5073055;28;20085;-79
2021/04/29 02:48:48;;;;;;;43.40;26.92;;;8.10;99.90;;;;;;5072674;28;20435;-79
2021/04/29 02:51:14;;;;;;;47.35;29.00;;;8.10;99.90;;;;;;5073026;28;20025;-80
2021/04/29 02:53:41;;;;;;;47.85;27.80;;;8.10;99.90;;;;;;5072865;28;20169;-79
2021/04/29 02:56:07;;;;;;;46.65;28.33;;;8.10;99.90;;;;;;5072735;28;20021;-80
2021/04/29 02:58:49;;;;;;;46.13;28.65;;;8.10;99.90;;;;;;5074090;28;20609;-82
2021/04/29 03:01:16;;;;;;;45.75;27.83;;;8.20;99.90;;;;;;5072702;28;20051;-82
2021/04/29 03:03:42;;;;;;;47.47;28.88;;;8.20;99.90;;;;;;5073767;28;20364;-80
2021/04/29 03:06:09;;;;;;;45.33;28.70;;;8.20;99.90;;;;;;5072681;28;20117;-82
2021/04/29 03:08:35;;;;;;;48.50;29.02;;;8.20;99.90;;;;;;5072546;28;20476;-80
2021/04/29 03:11:02;;;;;;;49.47;28.55;;;8.20;99.90;;;;;;5072473;28;20052;-81
2021/04/29 03:13:28;;;;;;;48.10;29.70;;;8.20;99.90;;;;;;5072478;28;20029;-81
2021/04/29 03:15:54;;;;;;;48.28;29.38;;;8.30;99.90;;;;;;5072659;28;20028;-82
2021/04/29 03:18:19;;;;;;;49.50;29.45;;;8.30;99.90;;;;;;5072588;28;20430;-79
2021/04/29 03:20:45;;;;;;;51.13;29.40;;;8.30;99.90;;;;;;5073428;28;20024;-82
2021/04/29 03:23:11;;;;;;;48.67;30.60;;;8.30;99.90;;;;;;5073463;28;20029;-79
2021/04/29 03:25:36;;;;;;;45.45;28.42;;;8.30;99.90;;;;;;5072280;28;20028;-78
2021/04/29 03:28:02;;;;;;;49.47;30.15;;;8.30;99.90;;;;;;5073252;28;20036;-79
2021/04/29 03:30:30;;;;;;;45.97;29.17;;;8.30;99.90;;;;;;5072418;28;20021;-81
2021/04/29 03:32:55;;;;;;;50.70;29.90;;;8.30;99.90;;;;;;5072195;28;20120;-80
2021/04/29 03:35:21;;;;;;;47.72;30.80;;;8.30;99.90;;;;;;5072510;28;20527;-80
2021/04/29 03:37:47;;;;;;;47.10;28.17;;;8.30;99.90;;;;;;5071485;28;20029;-79
2021/04/29 03:40:13;;;;;;;47.42;30.73;;;8.40;99.90;;;;;;5073993;28;20096;-82
2021/04/29 03:42:38;;;;;;;51.90;31.25;;;8.30;99.90;;;;;;5071994;28;20422;-79
2021/04/29 03:45:06;;;;;;;45.70;30.02;;;8.40;99.90;;;;;;5071762;28;20032;-82
2021/04/29 03:47:32;;;;;;;49.88;30.33;;;8.30;99.90;;;;;;5071483;28;20078;-83
2021/04/29 03:49:58;;;;;;;49.40;29.98;;;8.40;99.90;;;;;;5071483;28;20025;-80
2021/04/29 03:52:23;;;;;;;48.90;29.40;;;8.30;99.90;;;;;;5071737;28;20020;-77
2021/04/29 03:54:49;;;;;;;45.22;29.80;;;8.30;99.90;;;;;;5072488;28;20056;-80
2021/04/29 03:57:15;;;;;;;47.50;29.13;;;8.40;99.90;;;;;;5071025;28;20020;-81
2021/04/29 03:59:40;;;;;;;47.42;28.65;;;8.40;99.90;;;;;;5071200;28;20151;-78
2021/04/29 04:02:06;;;;;;;47.78;29.27;;;8.30;99.90;;;;;;5071134;28;20514;-78
2021/04/29 04:04:32;;;;;;;46.30;28.55;;;8.30;99.90;;;;;;5071084;28;20036;-79
2021/04/29 04:06:57;;;;;;;39.70;27.15;;;8.20;99.90;;;;;;5072119;28;20100;-75
2021/04/29 04:09:23;;;;;;;33.13;17.60;;;8.30;99.90;;;;;;5071090;28;20538;-76
2021/04/29 04:11:49;;;;;;;38.90;26.08;;;8.40;99.90;;;;;;5074788;28;20043;-78
2021/04/29 04:14:14;;;;;;;41.45;27.90;;;8.50;99.90;;;;;;5072186;28;20025;-78
2021/04/29 04:16:40;;;;;;;42.40;27.38;;;8.50;99.90;;;;;;5072164;28;20179;-76
2021/04/29 04:19:05;;;;;;;41.15;26.75;;;8.50;99.90;;;;;;5070914;28;20024;-78
2021/04/29 04:21:31;;;;;;;39.92;26.05;;;8.30;99.90;;;;;;5072137;28;20068;-78
2021/04/29 04:23:57;;;;;;;40.70;26.38;;;8.30;99.90;;;;;;5071328;28;20529;-79
2021/04/29 04:26:22;;;;;;;45.00;27.70;;;8.20;99.90;;;;;;5072213;28;20028;-79
2021/04/29 04:28:48;;;;;;;45.40;28.50;;;8.10;99.90;;;;;;5072005;28;20127;-79
2021/04/29 04:31:14;;;;;;;45.53;28.30;;;8.10;99.90;;;;;;5070942;28;20052;-79
2021/04/29 04:33:39;;;;;;;44.13;29.77;;;8.10;99.90;;;;;;5072250;28;20017;-80
2021/04/29 04:36:05;;;;;;;47.63;28.13;;;8.10;99.90;;;;;;5070891;28;20081;-79
2021/04/29 04:38:31;;;;;;;47.45;29.02;;;8.10;99.90;;;;;;5073697;28;20021;-77
2021/04/29 04:40:56;;;;;;;42.97;28.25;;;8.00;99.90;;;;;;5070507;28;20067;-79
2021/04/29 04:43:22;;;;;;;43.22;27.33;;;8.10;99.90;;;;;;5071581;28;20762;-78
2021/04/29 04:45:48;;;;;;;45.20;27.63;;;8.20;99.90;;;;;;5071003;28;20020;-79
2021/04/29 04:48:13;;;;;;;41.70;27.70;;;8.10;99.90;;;;;;5071545;28;20043;-79
2021/04/29 04:50:39;;;;;;;47.03;27.65;;;8.30;99.90;;;;;;5074077;28;20029;-81
2021/04/29 04:53:05;;;;;;;40.72;28.23;;;8.30;99.90;;;;;;5075716;28;20371;-79
2021/04/29 04:55:31;;;;;;;44.83;28.10;;;8.30;99.90;;;;;;5075006;28;20455;-76
2021/04/29 04:57:57;;;;;;;42.35;27.23;;;8.20;99.90;;;;;;5073328;28;20468;-80
2021/04/29 05:00:23;;;;;;;38.08;27.05;;;8.30;99.90;;;;;;5075248;28;20102;-79
2021/04/29 05:02:49;;;;;;;43.17;28.45;;;8.40;99.90;;;;;;5073696;28;20107;-78
2021/04/29 05:05:15;;;;;;;40.75;27.17;;;8.40;99.90;;;;;;5074951;28;20028;-77
2021/04/29 05:07:41;;;;;;;41.22;27.00;;;8.50;99.90;;;;;;5073139;28;20450;-79
2021/04/29 05:10:07;;;;;;;38.58;26.05;;;8.50;99.90;;;;;;5074221;28;20078;-79
2021/04/29 05:12:33;;;;;;;45.95;27.83;;;8.60;99.90;;;;;;5075724;28;20456;-80
2021/04/29 05:14:59;;;;;;;41.72;28.45;;;8.60;99.90;;;;;;5074599;28;20031;-78
2021/04/29 05:17:25;;;;;;;42.90;27.95;;;8.70;99.90;;;;;;5073710;28;20024;-80
2021/04/29 05:19:50;;;;;;;45.10;28.88;;;8.70;99.90;;;;;;5075702;28;20430;-79
2021/04/29 05:22:16;;;;;;;42.80;28.15;;;8.70;99.90;;;;;;5074221;28;20455;-80
2021/04/29 05:24:45;;;;;;;41.53;26.95;;;8.70;99.90;;;;;;5075651;28;20031;-83
2021/04/29 05:27:10;;;;;;;41.63;28.15;;;8.80;99.90;;;;;;5075436;28;20028;-79
2021/04/29 05:29:36;;;;;;;41.13;27.23;;;8.80;99.90;;;;;;5073981;28;20024;-80
2021/04/29 05:32:03;;;;;;;39.75;26.67;;;8.80;99.90;;;;;;5075432;28;20038;-80
2021/04/29 05:34:29;;;;;;;39.75;26.17;;;8.90;99.90;;;;;;5074199;28;20032;-79
2021/04/29 05:36:54;;;;;;;38.13;25.83;;;9.00;99.90;;;;;;5074212;28;20379;-77
2021/04/29 05:39:20;;;;;;;39.13;25.67;;;9.10;99.90;;;;;;5075357;28;20154;-79
2021/04/29 05:41:45;;;;;;;34.90;25.00;;;9.20;99.90;;;;;;5074090;28;20062;-78
2021/04/29 05:44:11;;;;;;;36.28;24.60;;;9.30;99.90;;;;;;5074152;28;20372;-79
2021/04/29 05:46:37;;;;;;;34.67;23.70;;;9.50;99.90;;;;;;5074044;28;20032;-80
2021/04/29 05:49:03;;;;;;;35.50;23.48;;;9.60;99.90;;;;;;5073628;28;20565;-80
2021/04/29 05:51:29;;;;;;;32.20;23.02;;;9.80;99.90;;;;;;5074948;28;20027;-78
2021/04/29 05:53:55;;;;;;;31.63;22.45;;;9.80;99.90;;;;;;5073753;28;20017;-81
2021/04/29 05:56:21;;;;;;;34.75;22.48;;;9.70;99.90;;;;;;5074010;28;20025;-82
2021/04/29 05:58:46;;;;;;;35.85;24.10;;;9.70;99.90;;;;;;5075211;28;20091;-80
2021/04/29 06:01:12;;;;;;;30.70;22.73;;;9.80;99.90;;;;;;5072916;28;20059;-79
2021/04/29 06:03:38;;;;;;;32.15;22.90;;;9.80;99.90;;;;;;5074641;28;20498;-87
2021/04/29 06:06:05;;;;;;;35.03;23.40;;;9.90;99.90;;;;;;5074455;28;20013;-82
2021/04/29 06:08:31;;;;;;;32.35;23.33;;;9.80;99.90;;;;;;5074980;28;20049;-81
2021/04/29 06:10:57;;;;;;;34.67;23.50;;;9.80;99.90;;;;;;5074619;28;20028;-82
2021/04/29 06:13:22;;;;;;;36.45;24.85;;;9.80;99.90;;;;;;5075237;28;20491;-79
2021/04/29 06:15:48;;;;;;;33.38;23.70;;;9.90;99.90;;;;;;5075259;28;20036;-77
2021/04/29 06:18:14;;;;;;;33.58;23.35;;;9.90;99.90;;;;;;5074998;28;20024;-79
2021/04/29 06:20:40;;;;;;;32.55;21.67;;;10.00;99.90;;;;;;5074126;28;20080;-83
2021/04/29 06:23:07;;;;;;;30.70;21.63;;;10.90;99.90;;;;;;5075212;28;20028;-81
2021/04/29 06:25:33;;;;;;;33.13;22.25;;;10.90;99.90;;;;;;5073965;28;20543;-85
2021/04/29 06:27:58;;;;;;;30.20;21.33;;;10.80;99.90;;;;;;5073813;28;20120;-81
2021/04/29 06:30:24;;;;;;;32.15;22.92;;;10.70;99.90;;;;;;5073842;28;20048;-85
2021/04/29 06:32:50;;;;;;;32.25;23.13;;;10.60;99.90;;;;;;5073975;28;20055;-80
2021/04/29 06:35:15;;;;;;;34.67;22.70;;;10.60;99.90;;;;;;5073971;28;20107;-81
2021/04/29 06:37:42;;;;;;;33.95;23.30;;;10.60;99.90;;;;;;5074590;28;20078;-80
2021/04/29 06:40:08;;;;;;;36.63;25.80;;;10.60;99.90;;;;;;5073983;28;20031;-81
2021/04/29 06:42:33;;;;;;;33.15;23.33;;;10.70;99.90;;;;;;5073518;28;20024;-81
2021/04/29 06:44:59;;;;;;;33.97;23.50;;;10.90;99.90;;;;;;5073255;28;20458;-84
2021/04/29 06:47:27;;;;;;;37.17;25.73;;;10.90;99.90;;;;;;5074439;28;20357;-84
2021/04/29 06:49:54;;;;;;;32.55;24.05;;;11.10;99.90;;;;;;5074680;28;20060;-78
2021/04/29 06:52:20;;;;;;;28.15;20.63;;;11.60;99.90;;;;;;5075094;28;20016;-80
2021/04/29 06:54:47;;;;;;;34.40;23.77;;;12.00;99.90;;;;;;5073483;28;20119;-79
2021/04/29 06:57:15;;;;;;;32.35;21.10;;;12.10;99.90;;;;;;5073127;28;20077;-81
2021/04/29 06:59:42;;;;;;;31.08;21.52;;;12.30;99.90;;;;;;5074294;28;20028;-80
2021/04/29 07:02:08;;;;;;;30.58;21.98;;;12.40;99.90;;;;;;5074248;28;20017;-84
2021/04/29 07:04:34;;;;;;;34.17;22.83;;;12.30;99.90;;;;;;5073122;28;20047;-83
2021/04/29 07:07:00;;;;;;;29.63;21.42;;;12.30;99.90;;;;;;5072678;28;20379;-82
2021/04/29 07:09:26;;;;;;;33.85;21.88;;;12.40;99.90;;;;;;5072485;28;20032;-81
2021/04/29 07:11:53;;;;;;;31.52;21.00;;;12.50;99.90;;;;;;5072844;28;20341;-81
2021/04/29 07:14:19;;;;;;;26.02;19.48;;;12.60;99.90;;;;;;5074985;28;20487;-84
2021/04/29 07:16:44;;;;;;;27.67;18.48;;;12.80;99.90;;;;;;5073358;28;20032;-85
2021/04/29 07:19:10;;;;;;;24.80;17.50;;;13.00;99.90;;;;;;5073356;28;20440;-85
2021/04/29 07:21:36;;;;;;;29.92;17.98;;;13.10;99.90;;;;;;5074432;28;20066;-84
2021/04/29 07:24:02;;;;;;;24.55;17.02;;;13.10;99.90;;;;;;5074715;28;20104;-82
2021/04/29 07:26:27;;;;;;;24.48;17.63;;;13.30;99.90;;;;;;5073048;28;20029;-80
2021/04/29 07:28:53;;;;;;;23.23;16.00;;;13.40;99.90;;;;;;5073948;28;20043;-82
2021/04/29 07:31:19;;;;;;;19.52;14.90;;;13.70;99.90;;;;;;5074219;28;20035;-83
2021/04/29 07:33:44;;;;;;;20.75;13.90;;;13.80;99.90;;;;;;5074275;28;20033;-81
2021/04/29 07:36:10;;;;;;;17.88;13.50;;;14.00;99.90;;;;;;5074566;28;20017;-78
2021/04/29 07:38:36;;;;;;;16.58;11.57;;;14.20;99.60;;;;;;5074006;28;20032;-86
2021/04/29 07:41:02;;;;;;;18.17;12.50;;;14.40;98.70;;;;;;5072728;28;20057;-86
2021/04/29 07:43:28;;;;;;;16.88;11.73;;;14.30;98.80;;;;;;5074337;28;20024;-84
2021/04/29 07:45:54;;;;;;;16.30;11.05;;;14.40;97.20;;;;;;5072923;28;20174;-84
2021/04/29 07:48:19;;;;;;;17.67;10.60;;;14.50;97.60;;;;;;5073888;28;20043;-85
2021/04/29 07:50:45;;;;;;;13.40;9.57;;;14.60;96.80;;;;;;5074035;28;20054;-87
2021/04/29 07:53:11;;;;;;;13.30;9.57;;;14.50;96.70;;;;;;5073840;28;20412;-87
2021/04/29 07:55:37;;;;;;;12.60;9.38;;;14.50;97.50;;;;;;5072900;28;20031;-84
2021/04/29 07:58:03;;;;;;;15.25;9.40;;;14.70;98.30;;;;;;5074115;28;20059;-85
2021/04/29 08:00:29;;;;;;;12.43;9.70;;;14.90;97.30;;;;;;5073557;28;20047;-88
2021/04/29 08:02:54;;;;;;;13.85;9.77;;;15.10;97.00;;;;;;5074134;28;20017;-85
2021/04/29 08:05:20;;;;;;;13.82;9.70;;;15.20;96.40;;;;;;5073083;28;20027;-80
2021/04/29 08:07:46;;;;;;;14.63;9.50;;;15.20;95.70;;;;;;5074184;28;20395;-86
2021/04/29 08:10:14;;;;;;;16.83;9.45;;;15.30;95.20;;;;;;5073337;28;20400;-83
2021/04/29 08:12:40;;;;;;;16.10;9.27;;;15.30;95.50;;;;;;5072591;28;20127;-82
2021/04/29 08:15:06;;;;;;;13.20;9.93;;;15.30;95.40;;;;;;5073867;28;20071;-80
2021/04/29 08:17:32;;;;;;;16.23;9.23;;;15.20;96.00;;;;;;5073051;28;20048;-81
2021/04/29 08:19:58;;;;;;;14.35;10.27;;;15.10;95.70;;;;;;5072962;28;20048;-87
2021/04/29 08:22:25;;;;;;;13.02;10.32;;;15.20;95.90;;;;;;5074303;28;20024;-83
2021/04/29 08:24:58;;;;;;;13.52;9.15;;;15.30;96.70;;;;;;5072917;28;20111;-88
2021/04/29 08:27:25;;;;;;;12.43;9.20;;;15.40;95.70;;;;;;5072761;28;20078;-86
2021/04/29 08:29:51;;;;;;;15.43;7.70;;;15.50;94.80;;;;;;5072861;28;20025;-85
2021/04/29 08:32:16;;;;;;;11.05;7.63;;;15.70;95.70;;;;;;5072765;28;20028;-86
2021/04/29 08:34:42;;;;;;;9.35;7.20;;;15.90;95.50;;;;;;5072706;28;20028;-84
2021/04/29 08:37:08;;;;;;;13.02;7.13;;;16.10;94.80;;;;;;5072881;28;20471;-84
2021/04/29 08:39:34;;;;;;;9.15;6.72;;;16.00;93.80;;;;;;5073762;28;20515;-85
2021/04/29 08:42:01;;;;;;;8.30;6.55;;;16.10;93.30;;;;;;5074683;28;20020;-89
2021/04/29 08:44:27;;;;;;;10.52;6.78;;;16.30;93.40;;;;;;5074268;28;20024;-84
2021/04/29 08:46:53;;;;;;;10.52;6.40;;;16.50;92.80;;;;;;5073023;28;20025;-82
2021/04/29 08:49:21;;;;;;;9.85;5.82;;;16.60;93.20;;;;;;5073854;28;20047;-83
2021/04/29 08:51:49;;;;;;;9.93;5.90;;;16.70;92.20;;;;;;5074494;28;20028;-84
2021/04/29 08:54:14;;;;;;;8.45;5.47;;;16.60;92.40;;;;;;5073017;28;20074;-88
2021/04/29 08:56:40;;;;;;;8.77;5.65;;;16.80;92.50;;;;;;5073259;28;20048;-86
2021/04/29 08:59:07;;;;;;;9.15;5.70;;;16.70;91.50;;;;;;5073137;28;20111;-86
2021/04/29 09:01:43;;;;;;;7.03;5.75;;;16.60;92.50;;;;;;5072531;28;20143;-85
2021/04/29 09:04:15;;;;;;;9.23;4.78;;;16.70;92.30;;;;;;5072286;28;20033;-84
2021/04/29 09:06:44;;;;;;;5.65;4.55;;;16.90;92.50;;;;;;5072484;28;20097;-82
2021/04/29 09:09:10;;;;;;;9.50;5.22;;;17.00;92.50;;;;;;5072212;28;20101;-87
2021/04/29 09:11:50;;;;;;;5.05;4.32;;;17.10;92.50;;;;;;5073859;28;20016;-86
2021/04/29 09:14:28;;;;;;;11.45;5.22;;;17.40;92.00;;;;;;5068006;28;20468;-85
2021/04/29 09:16:53;;;;;;;11.30;5.10;;;17.50;91.30;;;;;;5072309;28;20147;-83
2021/04/29 09:19:25;;;;;;;7.45;4.93;;;17.60;90.90;;;;;;5073276;28;20060;-87
2021/04/29 09:21:50;;;;;;;10.90;5.80;;;17.70;91.40;;;;;;5072215;28;20540;-82
2021/04/29 09:24:16;;;;;;;6.03;4.53;;;17.70;91.00;;;;;;5073159;28;20100;-84
2021/04/29 09:26:42;;;;;;;6.97;5.38;;;17.80;90.60;;;;;;5075540;28;20028;-84
2021/04/29 09:29:11;;;;;;;12.20;6.18;;;17.90;90.70;;;;;;5073163;28;20386;-85
2021/04/29 09:31:39;;;;;;;11.57;5.13;;;17.80;90.40;;;;;;5072255;28;20051;-84
2021/04/29 09:34:06;;;;;;;7.45;5.65;;;17.90;90.30;;;;;;5072220;28;20028;-84
2021/04/29 09:36:45;;;;;;;10.82;5.72;;;17.90;90.40;;;;;;5075206;28;20027;-85
2021/04/29 09:39:15;;;;;;;11.30;5.88;;;18.20;90.50;;;;;;5076389;28;20456;-84
2021/04/29 09:41:46;;;;;;;8.02;5.20;;;18.30;90.20;;;;;;5076700;28;20026;-82
2021/04/29 09:44:17;;;;;;;8.05;5.00;;;18.40;89.50;;;;;;5077021;28;20017;-88
2021/04/29 09:46:55;;;;;;;5.15;3.60;;;18.60;90.40;;;;;;5076696;28;20025;-86
2021/04/29 09:49:27;;;;;;;6.20;4.28;;;19.00;86.60;;;;;;5075525;28;20468;-87
2021/04/29 09:51:55;;;;;;;5.13;3.83;;;19.10;84.90;;;;;;5075343;28;20454;-83
2021/04/29 09:54:29;;;;;;;6.15;3.22;;;19.20;84.70;;;;;;5075193;28;20052;-82
2021/04/29 09:57:04;;;;;;;4.85;3.20;;;19.50;82.60;;;;;;5076456;28;20025;-84
2021/04/29 09:59:31;;;;;;;8.55;3.63;;;19.70;82.20;;;;;;5076339;28;20031;-85
2021/04/29 10:01:57;;;;;;;8.05;3.10;;;19.70;79.70;;;;;;5074765;28;20442;-88
2021/04/29 10:04:25;;;;;;;6.72;3.47;;;19.80;80.70;;;;;;5075317;28;20017;-85
2021/04/29 10:06:53;;;;;;;5.78;3.17;;;19.80;79.60;;;;;;5076186;28;20418;-85
2021/04/29 10:09:24;;;;;;;7.35;3.50;;;19.80;79.60;;;;;;5075978;28;20032;-86
2021/04/29 10:11:55;;;;;;;5.40;2.97;;;19.90;81.10;;;;;;5074615;28;20025;-85
2021/04/29 10:14:24;;;;;;;4.97;3.10;;;20.10;79.90;;;;;;5075965;28;20021;-83
2021/04/29 10:16:50;;;;;;;4.05;3.05;;;20.10;78.40;;;;;;5075709;28;20044;-86
2021/04/29 10:19:16;;;;;;;4.53;2.92;;;20.30;78.30;;;;;;5075875;28;20117;-82
2021/04/29 10:21:41;;;;;;;9.85;3.50;;;20.30;77.10;;;;;;5076051;28;20028;-82
2021/04/29 10:24:09;;;;;;;5.78;2.88;;;20.30;78.10;;;;;;5076210;28;20021;-79
2021/04/29 10:26:37;;;;;;;7.72;2.78;;;20.50;82.30;;;;;;5075936;28;20017;-84
2021/04/29 10:29:11;;;;;;;3.75;2.05;;;20.50;74.60;;;;;;5074444;28;20032;-83
2021/04/29 10:31:37;;;;;;;3.80;1.95;;;20.60;66.90;;;;;;5075618;28;20016;-81
2021/04/29 10:34:12;;;;;;;5.00;2.20;;;20.50;69.70;;;;;;5075660;28;20058;-81
2021/04/29 10:36:46;;;;;;;5.28;2.83;;;20.50;70.70;;;;;;5075367;28;20020;-80
2021/04/29 10:39:16;;;;;;;6.35;2.30;;;20.70;73.20;;;;;;5075472;28;20048;-80
2021/04/29 10:41:43;;;;;;;5.13;2.58;;;20.90;72.60;;;;;;5075471;28;20479;-81
2021/04/29 10:44:12;;;;;;;3.70;2.40;;;21.00;71.70;;;;;;5074350;28;20530;-81
2021/04/29 10:46:39;;;;;;;4.45;2.47;;;21.10;70.50;;;;;;5075105;28;20025;-81
2021/04/29 10:49:06;;;;;;;3.28;1.88;;;21.10;71.60;;;;;;5075438;28;20036;-79
2021/04/29 10:51:37;;;;;;;5.28;2.35;;;21.20;65.10;;;;;;5074001;28;20020;-81
2021/04/29 10:54:19;;;;;;;3.35;1.98;;;21.10;63.90;;;;;;5074344;28;20074;-80
2021/04/29 10:56:58;;;;;;;5.95;2.60;;;21.10;68.70;;;;;;5073781;28;20021;-81
2021/04/29 10:59:40;;;;;;;3.58;1.85;;;21.10;67.30;;;;;;5073722;28;20032;-84
2021/04/29 11:02:19;;;;;;;6.88;2.20;;;21.10;66.60;;;;;;5074962;28;20541;-85
2021/04/29 11:04:45;;;;;;;3.10;1.70;;;21.30;68.00;;;;;;5074065;28;20028;-88
2021/04/29 11:07:13;;;;;;;3.45;1.63;;;21.50;67.90;;;;;;5073936;28;20023;-86
2021/04/29 11:09:39;;;;;;;2.60;1.75;;;21.50;60.30;;;;;;5074648;28;20047;-83
2021/04/29 11:12:10;;;;;;;8.13;2.10;;;21.50;61.70;;;;;;5073997;28;20032;-82
2021/04/29 11:14:42;;;;;;;3.08;2.00;;;21.50;62.50;;;;;;5073484;28;20032;-84
2021/04/29 11:17:19;;;;;;;4.85;2.47;;;21.40;61.70;;;;;;5073612;28;20031;-81
2021/04/29 11:19:48;;;;;;;2.90;1.88;;;21.50;63.00;;;;;;5072690;28;20021;-81
2021/04/29 11:22:37;;;;;;;5.40;1.90;;;21.50;62.70;;;;;;5073156;28;20028;-81
2021/04/29 11:25:10;;;;;;;4.07;1.80;;;21.60;62.30;;;;;;5073072;28;20479;-80
2021/04/29 11:27:39;;;;;;;5.13;2.20;;;21.70;61.90;;;;;;5073852;28;20040;-79
2021/04/29 11:30:08;;;;;;;3.25;2.20;;;21.70;64.90;;;;;;5072920;28;20025;-81
2021/04/29 11:32:36;;;;;;;2.25;1.73;;;21.50;63.20;;;;;;5072117;28;20021;-82
2021/04/29 11:35:18;;;;;;;2.20;1.60;;;21.60;62.80;;;;;;5071889;28;20055;-82
2021/04/29 11:37:44;;;;;;;4.28;2.08;;;21.60;63.80;;;;;;5071752;28;20090;-80
2021/04/29 11:40:13;;;;;;;5.07;1.42;;;21.60;64.00;;;;;;5071816;28;20048;-81
2021/04/29 11:42:42;;;;;;;3.28;1.10;;;21.80;65.00;;;;;;5071708;28;20021;-80
2021/04/29 11:45:09;;;;;;;3.05;1.50;;;22.00;61.70;;;;;;5071711;28;20471;-81
2021/04/29 11:47:36;;;;;;;3.20;1.50;;;22.00;62.20;;;;;;5071460;28;20098;-80
2021/04/29 11:50:03;;;;;;;2.50;1.30;;;22.10;62.80;;;;;;5071555;28;20029;-82
2021/04/29 11:52:29;;;;;;;3.60;1.50;;;22.30;58.70;;;;;;5071604;28;20024;-80
2021/04/29 11:54:54;;;;;;;3.65;1.50;;;22.40;59.90;;;;;;5072878;28;20086;-80
2021/04/29 11:57:20;;;;;;;2.05;1.20;;;22.50;57.10;;;;;;5072782;28;20028;-80
2021/04/29 11:59:51;;;;;;;1.20;1.10;;;22.50;58.50;;;;;;5071699;28;20028;-80
2021/04/29 12:02:17;;;;;;;2.33;0.80;;;22.40;58.40;;;;;;5071369;28;20017;-78
2021/04/29 12:04:48;;;;;;;1.70;0.70;;;22.40;53.60;;;;;;5071414;28;20502;-82
2021/04/29 12:07:15;;;;;;;2.20;1.10;;;22.20;54.20;;;;;;5071456;28;20052;-79
2021/04/29 12:09:42;;;;;;;2.45;1.00;;;22.10;55.90;;;;;;5072810;28;20043;-80
2021/04/29 12:12:16;;;;;;;1.77;0.93;;;22.10;56.90;;;;;;5071481;28;20025;-77
2021/04/29 12:14:53;;;;;;;2.08;0.90;;;22.30;57.50;;;;;;5071256;28;20031;-78
2021/04/29 12:17:20;;;;;;;4.82;1.10;;;22.60;56.40;;;;;;5071087;28;20163;-78
2021/04/29 12:19:51;;;;;;;5.60;0.93;;;22.90;54.90;;;;;;5071609;28;20547;-79
2021/04/29 12:22:24;;;;;;;3.67;0.82;;;23.30;54.10;;;;;;5071670;28;20055;-79
2021/04/29 12:24:51;;;;;;;2.00;0.70;;;23.50;53.80;;;;;;5073791;28;20143;-78
2021/04/29 12:27:20;;;;;;;1.38;0.70;;;23.60;53.10;;;;;;5071706;28;20452;-78
2021/04/29 12:30:00;;;;;;;1.38;0.63;;;23.70;52.80;;;;;;5071664;28;20028;-78
2021/04/29 12:32:36;;;;;;;2.70;0.95;;;23.20;52.70;;;;;;5071527;28;20029;-78
2021/04/29 12:35:02;;;;;;;1.58;0.60;;;23.10;50.80;;;;;;5071845;28;20032;-78
2021/04/29 12:37:28;;;;;;;1.45;0.75;;;22.90;50.00;;;;;;5071212;28;20028;-77
2021/04/29 12:39:54;;;;;;;1.25;0.85;;;22.80;50.70;;;;;;5072890;28;20102;-78